Time;durP1;ratioP1;P1;durP2;ratioP2;P2;SDS_P1;SDS_P2;PMS_P1;PMS_P2;Temp;Humidity;BMP_temperature;BMP_pressure;BME280_temperature;BME280_humidity;BME280_pressure;Samples;Min_cycle;Max_cycle;Signal;HPM_P1;HPM_P2
2022/04/06 00:01:22;;;;;;;;;;;;;;;17.19;60.23;100455.06;5040815;28;1743;-36
2022/04/06 00:03:50;;;;;;;;;;;;;;;17.22;60.62;100469.03;5045924;28;1981;-36
2022/04/06 00:06:16;;;;;;;;;;;;;;;17.20;60.45;100459.44;5050928;28;1577;-36
2022/04/06 00:08:43;;;;;;;;;;;;;;;17.19;60.39;100453.28;5047107;28;1649;-36
2022/04/06 00:11:09;;;;;;;;;;;;;;;17.21;60.18;100455.78;5042749;28;1494;-36
2022/04/06 00:13:36;;;;;;;;;;;;;;;17.22;59.41;100465.50;5043238;28;1604;-36
2022/04/06 00:16:02;;;;;;;;;;;;;;;17.20;60.53;100456.78;5040770;28;1635;-36
2022/04/06 00:18:28;;;;;;;;;;;;;;;17.19;60.32;100447.94;5049351;28;1522;-36
2022/04/06 00:20:56;;;;;;;;;;;;;;;17.19;60.37;100460.41;5042468;28;1012;-35
2022/04/06 00:23:23;;;;;;;;;;;;;;;17.17;60.45;100454.34;5038797;28;1906;-36
2022/04/06 00:25:49;;;;;;;;;;;;;;;17.14;60.02;100444.78;5042888;28;1581;-36
2022/04/06 00:28:15;;;;;;;;;;;;;;;17.19;60.42;100471.97;5044490;28;1600;-36
2022/04/06 00:30:42;;;;;;;;;;;;;;;17.17;60.40;100465.91;5043215;28;1530;-36
2022/04/06 00:33:08;;;;;;;;;;;;;;;17.18;59.49;100466.75;5042981;28;1667;-36
2022/04/06 00:35:35;;;;;;;;;;;;;;;17.17;59.97;100454.34;5033674;28;1085;-36
2022/04/06 00:38:04;;;;;;;;;;;;;;;17.17;60.57;100470.38;5038614;28;1747;-36
2022/04/06 00:40:32;;;;;;;;;;;;;;;17.14;60.40;100471.50;5040791;28;1396;-36
2022/04/06 00:42:59;;;;;;;;;;;;;;;17.16;60.10;100466.03;5044145;28;1981;-36
2022/04/06 00:45:26;;;;;;;;;;;;;;;17.16;59.65;100469.56;5047944;28;1660;-36
2022/04/06 00:47:53;;;;;;;;;;;;;;;17.13;60.57;100476.97;5047207;28;1521;-36
2022/04/06 00:50:21;;;;;;;;;;;;;;;17.08;60.05;100464.84;5045273;28;1567;-36
2022/04/06 00:52:48;;;;;;;;;;;;;;;17.15;59.99;100472.34;5053300;28;1476;-36
2022/04/06 00:55:16;;;;;;;;;;;;;;;17.11;59.80;100477.13;5050735;28;1604;-36
2022/04/06 00:57:42;;;;;;;;;;;;;;;17.10;60.30;100470.91;5046682;28;1465;-36
2022/04/06 01:00:10;;;;;;;;;;;;;;;17.12;59.90;100477.97;5047138;28;1777;-36
2022/04/06 01:02:37;;;;;;;;;;;;;;;17.18;60.66;100480.94;5048665;28;1902;-36
2022/04/06 01:05:04;;;;;;;;;;;;;;;17.48;60.02;100480.16;5042242;28;1575;-36
2022/04/06 01:07:30;;;;;;;;;;;;;;;17.83;59.42;100481.63;5053867;28;1674;-36
2022/04/06 01:09:57;;;;;;;;;;;;;;;17.97;58.89;100474.22;5048651;28;1676;-36
2022/04/06 01:12:25;;;;;;;;;;;;;;;18.17;58.61;100475.94;5047861;28;1673;-36
2022/04/06 01:14:51;;;;;;;;;;;;;;;18.30;59.00;100459.63;5045343;28;1007;-36
2022/04/06 01:17:18;;;;;;;;;;;;;;;18.52;57.86;100469.22;5050467;28;1829;-36
2022/04/06 01:19:47;;;;;;;;;;;;;;;18.64;57.41;100456.56;5042292;28;1425;-36
2022/04/06 01:22:15;;;;;;;;;;;;;;;18.81;57.52;100463.94;5055293;28;1968;-36
2022/04/06 01:24:42;;;;;;;;;;;;;;;18.83;57.76;100471.81;5051668;28;1565;-36
2022/04/06 01:27:09;;;;;;;;;;;;;;;18.98;56.57;100454.34;5044854;28;951;-36
2022/04/06 01:29:36;;;;;;;;;;;;;;;19.14;56.14;100461.78;5049642;28;1754;-36
2022/04/06 01:32:10;;;;;;;;;;;;;;;18.98;57.00;100470.41;5048536;28;1719;-36
2022/04/06 01:34:36;;;;;;;;;;;;;;;19.01;57.32;100454.03;5044862;28;1421;-36
2022/04/06 01:37:03;;;;;;;;;;;;;;;19.36;56.78;100468.66;5054138;28;1662;-36
2022/04/06 01:39:31;;;;;;;;;;;;;;;19.38;56.72;100469.34;5050041;28;1813;-36
2022/04/06 01:41:57;;;;;;;;;;;;;;;19.32;56.09;100461.03;5045193;28;1587;-35
2022/04/06 01:44:24;;;;;;;;;;;;;;;19.17;56.42;100456.13;5049109;28;1910;-36
2022/04/06 01:46:50;;;;;;;;;;;;;;;18.99;56.62;100464.06;5050002;28;1657;-36
2022/04/06 01:52:13;;;;;;;;;;;;;;;19.11;56.96;100458.53;5047086;28;1165;-36
2022/04/06 01:54:41;;;;;;;;;;;;;;;19.05;57.66;100468.00;5049157;28;1538;-35
2022/04/06 01:57:07;;;;;;;;;;;;;;;18.84;57.56;100470.81;5047543;28;1806;-36
2022/04/06 01:59:34;;;;;;;;;;;;;;;19.13;57.63;100483.38;5043121;28;1631;-36
2022/04/06 02:02:00;;;;;;;;;;;;;;;18.97;58.16;100483.94;5075314;23;3711;-57
2022/04/06 02:04:27;;;;;;;;;;;;;;;18.97;57.74;100476.75;5032345;28;1909;-57
2022/04/06 02:06:54;;;;;;;;;;;;;;;18.88;59.02;100480.31;5025902;28;1067;-58
2022/04/06 02:09:20;;;;;;;;;;;;;;;18.90;58.46;100474.78;5029716;28;1744;-57
2022/04/06 02:11:48;;;;;;;;;;;;;;;18.98;57.91;100474.91;5030985;28;1767;-61
2022/04/06 02:14:16;;;;;;;;;;;;;;;19.27;57.15;100456.09;5023908;28;1390;-57
2022/04/06 02:16:43;;;;;;;;;;;;;;;19.27;58.06;100480.22;5030784;28;1635;-57
2022/04/06 02:19:09;;;;;;;;;;;;;;;19.12;58.09;100476.31;5023478;28;1629;-62
2022/04/06 02:21:36;;;;;;;;;;;;;;;19.16;57.91;100469.66;5036857;28;1103;-57
2022/04/06 02:24:03;;;;;;;;;;;;;;;19.18;58.23;100486.44;5030067;28;1906;-57
2022/04/06 02:26:29;;;;;;;;;;;;;;;19.25;58.16;100490.25;5029772;28;1597;-57
2022/04/06 02:28:59;;;;;;;;;;;;;;;19.27;56.93;100481.06;5025707;28;1570;-58
2022/04/06 02:31:25;;;;;;;;;;;;;;;19.23;57.04;100474.31;5033611;28;1401;-57
2022/04/06 02:33:52;;;;;;;;;;;;;;;19.22;57.23;100482.53;5024306;28;1460;-62
2022/04/06 02:36:19;;;;;;;;;;;;;;;19.24;57.64;100481.38;5027871;28;1870;-57
2022/04/06 02:38:45;;;;;;;;;;;;;;;19.25;57.63;100493.78;5030526;28;1649;-57
2022/04/06 02:41:12;;;;;;;;;;;;;;;19.21;57.88;100487.00;5030136;28;1681;-61
2022/04/06 02:43:39;;;;;;;;;;;;;;;19.17;57.49;100490.13;5026738;28;1963;-62
2022/04/06 02:46:07;;;;;;;;;;;;;;;19.11;58.15;100496.06;5028226;28;1518;-57
2022/04/06 02:48:34;;;;;;;;;;;;;;;19.22;57.33;100479.84;5027060;28;1449;-57
2022/04/06 02:51:00;;;;;;;;;;;;;;;19.12;57.99;100489.69;5027292;28;1011;-57
2022/04/06 02:53:27;;;;;;;;;;;;;;;19.29;57.99;100507.75;5031892;28;1715;-57
2022/04/06 02:55:53;;;;;;;;;;;;;;;19.25;57.86;100499.13;5026935;28;1642;-57
2022/04/06 02:58:20;;;;;;;;;;;;;;;19.28;56.59;100492.66;5023931;28;1862;-62
2022/04/06 03:00:46;;;;;;;;;;;;;;;19.27;57.12;100491.78;5026295;28;1685;-57
2022/04/06 03:03:14;;;;;;;;;;;;;;;19.14;57.54;100485.03;5026673;28;1906;-57
2022/04/06 03:05:41;;;;;;;;;;;;;;;19.26;57.94;100494.66;5026952;28;1638;-57
2022/04/06 03:08:08;;;;;;;;;;;;;;;19.30;57.37;100505.91;5018278;28;1736;-58
2022/04/06 03:10:34;;;;;;;;;;;;;;;19.24;57.05;100493.94;5030958;28;1475;-57
2022/04/06 03:13:01;;;;;;;;;;;;;;;19.30;56.62;100500.53;5023549;28;1247;-57
2022/04/06 03:15:28;;;;;;;;;;;;;;;19.25;56.89;100496.47;5029763;28;1601;-62
2022/04/06 03:17:54;;;;;;;;;;;;;;;19.25;57.34;100498.28;5025878;28;1981;-62
2022/04/06 03:20:22;;;;;;;;;;;;;;;19.33;57.59;100506.47;5024873;28;1057;-58
2022/04/06 03:22:49;;;;;;;;;;;;;;;19.29;56.76;100510.44;5032039;28;1989;-61
2022/04/06 03:25:15;;;;;;;;;;;;;;;19.34;56.87;100508.16;5027835;28;1638;-57
2022/04/06 03:27:42;;;;;;;;;;;;;;;19.26;56.66;100508.06;5027693;28;1456;-57
2022/04/06 03:30:11;;;;;;;;;;;;;;;19.26;57.94;100513.41;5026067;28;1072;-62
2022/04/06 03:32:38;;;;;;;;;;;;;;;19.38;57.45;100514.94;5027024;28;1735;-57
2022/04/06 03:35:05;;;;;;;;;;;;;;;19.31;57.62;100524.53;5021111;28;1552;-60
2022/04/06 03:37:33;;;;;;;;;;;;;;;19.20;57.48;100511.28;5032637;28;1597;-59
2022/04/06 03:40:01;;;;;;;;;;;;;;;19.34;56.73;100518.03;5026200;28;1619;-57
2022/04/06 03:42:27;;;;;;;;;;;;;;;19.33;57.59;100535.97;5025874;28;1456;-62
2022/04/06 03:44:54;;;;;;;;;;;;;;;19.34;57.36;100529.63;5023866;28;1906;-63
2022/04/06 03:47:21;;;;;;;;;;;;;;;19.24;56.90;100536.84;5029295;28;1715;-62
2022/04/06 03:49:47;;;;;;;;;;;;;;;19.36;57.68;100549.09;5027174;28;1483;-57
2022/04/06 03:52:14;;;;;;;;;;;;;;;19.31;56.69;100545.16;5018210;28;1318;-57
2022/04/06 03:54:46;;;;;;;;;;;;;;;19.17;56.99;100533.84;5024316;28;1073;-63
2022/04/06 03:57:13;;;;;;;;;;;;;;;18.82;58.00;100555.84;5025966;28;1531;-62
2022/04/06 03:59:39;;;;;;;;;;;;;;;18.61;58.03;100580.88;5023983;28;1751;-62
2022/04/06 04:02:06;;;;;;;;;;;;;;;18.44;59.02;100560.13;5020147;28;1527;-57
2022/04/06 04:04:33;;;;;;;;;;;;;;;18.31;59.44;100554.19;5025279;28;1886;-62
2022/04/06 04:06:59;;;;;;;;;;;;;;;18.25;59.18;100564.44;5021027;28;982;-57
2022/04/06 04:09:26;;;;;;;;;;;;;;;18.22;59.77;100561.19;5028943;28;1724;-61
2022/04/06 04:11:56;;;;;;;;;;;;;;;18.17;59.73;100556.25;5024648;28;1733;-61
2022/04/06 04:14:22;;;;;;;;;;;;;;;18.15;59.70;100562.72;5028830;28;1595;-62
2022/04/06 04:16:49;;;;;;;;;;;;;;;18.09;59.79;100567.63;5024276;28;1553;-59
2022/04/06 04:19:16;;;;;;;;;;;;;;;18.06;59.77;100564.34;5024321;28;1573;-61
2022/04/06 04:21:42;;;;;;;;;;;;;;;18.03;59.51;100578.84;5019524;28;1087;-57
2022/04/06 04:24:10;;;;;;;;;;;;;;;18.00;59.11;100571.09;5021331;28;1973;-61
2022/04/06 04:26:38;;;;;;;;;;;;;;;17.97;59.57;100589.25;5024399;28;1605;-57
2022/04/06 04:29:07;;;;;;;;;;;;;;;17.96;59.15;100591.06;5028635;28;1506;-61
2022/04/06 04:31:34;;;;;;;;;;;;;;;17.94;59.74;100598.38;5020940;28;1594;-61
2022/04/06 04:34:00;;;;;;;;;;;;;;;17.91;59.85;100589.78;5031175;28;1776;-59
2022/04/06 04:36:27;;;;;;;;;;;;;;;17.93;60.11;100603.88;5025845;28;1206;-57
2022/04/06 04:38:54;;;;;;;;;;;;;;;17.89;60.12;100604.13;5028595;28;1735;-61
2022/04/06 04:41:20;;;;;;;;;;;;;;;17.86;60.08;100600.88;5026682;28;1378;-57
2022/04/06 04:43:47;;;;;;;;;;;;;;;17.88;60.24;100615.78;5025597;28;1975;-65
2022/04/06 04:46:15;;;;;;;;;;;;;;;17.85;59.38;100613.41;4993323;28;10987;-58
2022/04/06 04:48:41;;;;;;;;;;;;;;;17.77;60.10;100597.13;5060938;28;1433;-58
2022/04/06 04:51:08;;;;;;;;;;;;;;;17.77;59.66;100601.66;5043783;28;1514;-58
2022/04/06 04:53:35;;;;;;;;;;;;;;;17.72;59.72;100610.03;5048206;28;1621;-65
2022/04/06 04:56:01;;;;;;;;;;;;;;;17.76;59.44;100611.47;5047202;28;1504;-60
2022/04/06 04:58:28;;;;;;;;;;;;;;;17.81;58.92;100614.63;5044699;28;1619;-60
2022/04/06 05:00:54;;;;;;;;;;;;;;;17.94;58.80;100624.28;5051425;28;1625;-57
2022/04/06 05:03:22;;;;;;;;;;;;;;;18.03;59.78;100634.22;5047431;28;1963;-59
2022/04/06 05:05:51;;;;;;;;;;;;;;;18.04;59.77;100634.06;5034244;28;1032;-65
2022/04/06 05:08:18;;;;;;;;;;;;;;;18.12;59.08;100627.19;5039339;28;1467;-59
2022/04/06 05:10:45;;;;;;;;;;;;;;;18.14;59.94;100631.44;5044234;28;1374;-65
2022/04/06 05:13:13;;;;;;;;;;;;;;;18.01;60.50;100626.31;5046941;28;1405;-64
2022/04/06 05:15:40;;;;;;;;;;;;;;;18.00;60.33;100631.78;5045513;28;1339;-69
2022/04/06 05:18:07;;;;;;;;;;;;;;;18.05;61.26;100632.25;5049081;28;1465;-65
2022/04/06 05:20:35;;;;;;;;;;;;;;;17.95;60.46;100639.38;5049330;28;1149;-55
2022/04/06 05:23:01;;;;;;;;;;;;;;;17.95;58.46;100642.88;5042882;28;1405;-56
2022/04/06 05:25:28;;;;;;;;;;;;;;;17.95;59.99;100642.88;5042793;28;1981;-58
2022/04/06 05:27:55;;;;;;;;;;;;;;;18.01;61.41;100653.06;5043426;28;1557;-57
2022/04/06 05:30:23;;;;;;;;;;;;;;;18.15;61.93;100643.84;5045466;28;1268;-54
2022/04/06 05:32:51;;;;;;;;;;;;;;;18.20;61.77;100656.81;5051402;28;1675;-52
2022/04/06 05:35:17;;;;;;;;;;;;;;;18.25;62.63;100655.44;5042299;28;1723;-64
2022/04/06 05:37:46;;;;;;;;;;;;;;;18.24;61.91;100643.06;5054664;28;1765;-54
2022/04/06 05:40:13;;;;;;;;;;;;;;;18.25;62.49;100646.56;5047460;28;1620;-61
2022/04/06 05:42:39;;;;;;;;;;;;;;;18.23;61.82;100641.34;5051896;28;1508;-56
2022/04/06 05:45:07;;;;;;;;;;;;;;;18.29;61.99;100642.66;5045050;28;1910;-57
2022/04/06 05:47:34;;;;;;;;;;;;;;;18.35;62.12;100652.81;5044889;28;1465;-69
2022/04/06 05:50:00;;;;;;;;;;;;;;;18.45;61.75;100663.56;5047131;28;1460;-60
2022/04/06 05:52:27;;;;;;;;;;;;;;;18.42;61.34;100656.66;5055210;28;1475;-67
2022/04/06 05:54:55;;;;;;;;;;;;;;;18.47;60.80;100645.53;5052145;28;1649;-72
2022/04/06 05:57:22;;;;;;;;;;;;;;;18.54;60.54;100651.19;5051230;28;1498;-57
2022/04/06 05:59:49;;;;;;;;;;;;;;;18.56;61.32;100646.53;5050512;28;1709;-58
2022/04/06 06:02:15;;;;;;;;;;;;;;;18.61;60.47;100649.69;5051703;28;1456;-57
2022/04/06 06:04:42;;;;;;;;;;;;;;;18.60;60.84;100638.13;5049273;28;1906;-59
2022/04/06 06:07:10;;;;;;;;;;;;;;;18.65;61.38;100633.19;5056225;28;1704;-58
2022/04/06 06:09:37;;;;;;;;;;;;;;;18.72;60.68;100648.72;5048234;28;952;-60
2022/04/06 06:12:05;;;;;;;;;;;;;;;18.66;61.23;100640.25;5049228;28;1703;-64
2022/04/06 06:14:31;;;;;;;;;;;;;;;18.67;61.88;100644.63;5050480;28;1702;-61
2022/04/06 06:16:59;;;;;;;;;;;;;;;18.60;61.33;100632.78;5051383;28;1664;-65
2022/04/06 06:19:25;;;;;;;;;;;;;;;18.65;61.14;100654.63;5047503;28;1482;-59
2022/04/06 06:21:52;;;;;;;;;;;;;;;18.68;62.30;100635.63;5052864;28;1334;-60
2022/04/06 06:24:20;;;;;;;;;;;;;;;18.68;61.44;100649.00;5053843;28;1975;-67
2022/04/06 06:26:47;;;;;;;;;;;;;;;18.66;61.99;100640.25;5052477;28;1653;-62
2022/04/06 06:29:15;;;;;;;;;;;;;;;18.75;61.31;100651.13;5047931;28;1341;-65
2022/04/06 06:31:42;;;;;;;;;;;;;;;18.78;62.36;100650.84;5052449;28;1430;-66
2022/04/06 06:34:09;;;;;;;;;;;;;;;18.76;61.17;100632.25;5051060;28;1732;-60
2022/04/06 06:36:35;;;;;;;;;;;;;;;18.80;61.92;100643.53;5055394;28;1447;-59
2022/04/06 06:39:02;;;;;;;;;;;;;;;18.76;61.48;100637.63;5052375;28;1520;-59
2022/04/06 06:41:30;;;;;;;;;;;;;;;18.76;61.76;100663.53;5048721;28;1588;-61
2022/04/06 06:43:58;;;;;;;;;;;;;;;18.77;61.47;100655.38;5051804;28;1902;-59
2022/04/06 06:46:26;;;;;;;;;;;;;;;18.80;61.40;100654.25;5051128;28;1445;-58
2022/04/06 06:48:54;;;;;;;;;;;;;;;18.82;62.17;100663.00;5053374;28;2089;-60
2022/04/06 06:51:20;;;;;;;;;;;;;;;18.79;61.10;100653.44;5054308;28;1098;-58
2022/04/06 06:53:47;;;;;;;;;;;;;;;18.82;61.16;100646.94;5046226;28;1445;-59
2022/04/06 06:56:14;;;;;;;;;;;;;;;18.85;61.51;100654.72;5046736;28;1639;-59
2022/04/06 06:58:40;;;;;;;;;;;;;;;18.88;60.91;100667.84;5045186;28;1612;-64
2022/04/06 07:01:07;;;;;;;;;;;;;;;18.86;61.24;100654.59;5053068;28;1509;-59
2022/04/06 07:03:34;;;;;;;;;;;;;;;18.90;61.70;100665.88;5044861;28;1408;-59
2022/04/06 07:06:02;;;;;;;;;;;;;;;18.89;61.94;100674.88;5049510;28;1906;-59
2022/04/06 07:08:28;;;;;;;;;;;;;;;18.96;61.25;100667.13;5053976;28;1688;-60
2022/04/06 07:10:55;;;;;;;;;;;;;;;18.97;61.36;100671.53;5052337;28;1366;-62
2022/04/06 07:13:22;;;;;;;;;;;;;;;18.97;61.04;100667.00;5050053;28;1497;-58
2022/04/06 07:15:49;;;;;;;;;;;;;;;18.94;61.11;100678.00;5047524;28;1310;-72
2022/04/06 07:18:17;;;;;;;;;;;;;;;18.95;60.77;100681.53;5048003;28;1864;-59
2022/04/06 07:20:45;;;;;;;;;;;;;;;18.95;60.24;100673.50;5043670;28;1007;-67
2022/04/06 07:23:12;;;;;;;;;;;;;;;19.01;60.03;100671.09;5049113;28;1723;-58
2022/04/06 07:25:40;;;;;;;;;;;;;;;19.01;60.26;100700.59;5050506;28;1977;-69
2022/04/06 07:28:07;;;;;;;;;;;;;;;18.94;59.23;100682.50;5051358;28;1346;-68
2022/04/06 07:30:34;;;;;;;;;;;;;;;18.95;58.41;100690.41;5048521;28;1417;-59
2022/04/06 07:33:00;;;;;;;;;;;;;;;18.85;59.49;100706.47;5046133;28;1307;-69
2022/04/06 07:35:27;;;;;;;;;;;;;;;18.82;59.20;100703.19;5044993;28;1520;-70
2022/04/06 07:37:55;;;;;;;;;;;;;;;18.60;58.97;100710.44;5052909;28;1778;-59
2022/04/06 07:40:22;;;;;;;;;;;;;;;18.71;55.73;100708.66;5044659;28;1616;-58
2022/04/06 07:42:50;;;;;;;;;;;;;;;18.73;57.40;100702.16;5045129;28;1533;-68
2022/04/06 07:45:17;;;;;;;;;;;;;;;18.72;55.88;100713.00;5050766;28;1902;-59
2022/04/06 07:47:44;;;;;;;;;;;;;;;18.74;57.35;100709.22;5048596;28;1341;-59
2022/04/06 07:50:12;;;;;;;;;;;;;;;18.72;57.74;100704.97;5048261;28;1535;-69
2022/04/06 07:52:39;;;;;;;;;;;;;;;18.72;56.86;100707.66;5052377;28;1464;-69
2022/04/06 07:55:08;;;;;;;;;;;;;;;18.74;56.88;100709.22;5046498;28;1409;-59
2022/04/06 07:57:35;;;;;;;;;;;;;;;18.72;57.35;100702.28;5043192;28;1421;-58
2022/04/06 08:00:02;;;;;;;;;;;;;;;18.72;56.46;100716.56;5044654;28;1244;-67
2022/04/06 08:02:29;;;;;;;;;;;;;;;18.69;56.95;100706.94;5048662;28;1719;-59
2022/04/06 08:04:55;;;;;;;;;;;;;;;18.71;56.77;100708.66;5036988;28;1977;-68
2022/04/06 08:07:22;;;;;;;;;;;;;;;18.62;56.22;100700.44;5046473;28;1711;-69
2022/04/06 08:09:48;;;;;;;;;;;;;;;18.69;56.24;100723.00;5041937;28;1442;-59
2022/04/06 08:12:16;;;;;;;;;;;;;;;18.67;55.87;100727.66;5052204;28;1393;-69
2022/04/06 08:14:43;;;;;;;;;;;;;;;18.62;55.60;100711.16;5041539;28;1632;-69
2022/04/06 08:17:09;;;;;;;;;;;;;;;18.67;55.92;100713.41;5043840;28;1474;-68
2022/04/06 08:19:36;;;;;;;;;;;;;;;18.63;56.65;100712.84;5050678;28;1409;-69
2022/04/06 08:22:02;;;;;;;;;;;;;;;18.66;55.16;100720.63;5047679;28;1085;-58
2022/04/06 08:24:29;;;;;;;;;;;;;;;18.60;54.10;100691.69;5046818;28;1901;-58
2022/04/06 08:26:55;;;;;;;;;;;;;;;18.67;55.09;100703.53;5040423;28;1584;-68
2022/04/06 08:29:23;;;;;;;;;;;;;;;18.63;55.89;100696.75;5048441;28;1746;-69
2022/04/06 08:31:50;;;;;;;;;;;;;;;18.62;55.23;100700.44;5041039;28;1592;-69
2022/04/06 08:34:16;;;;;;;;;;;;;;;18.66;54.53;100706.34;5043934;28;1568;-59
2022/04/06 08:36:43;;;;;;;;;;;;;;;18.63;53.93;100709.31;5043085;28;962;-69
2022/04/06 08:39:09;;;;;;;;;;;;;;;18.63;54.26;100710.16;5043644;28;1998;-59
2022/04/06 08:41:36;;;;;;;;;;;;;;;18.63;53.18;100718.19;5043781;28;1651;-59
2022/04/06 08:44:02;;;;;;;;;;;;;;;18.60;54.24;100715.78;5044055;28;1448;-69
2022/04/06 08:46:34;;;;;;;;;;;;;;;18.57;53.73;100707.19;5044347;28;1969;-68
2022/04/06 08:49:01;;;;;;;;;;;;;;;18.54;53.69;100697.56;5041598;28;1576;-59
2022/04/06 08:51:28;;;;;;;;;;;;;;;18.54;53.12;100708.28;5034591;28;1031;-69
2022/04/06 08:53:55;;;;;;;;;;;;;;;18.50;53.46;100701.47;5040663;28;1818;-68
2022/04/06 08:56:22;;;;;;;;;;;;;;;18.49;52.43;100706.00;5046209;28;1667;-68
2022/04/06 08:58:49;;;;;;;;;;;;;;;18.48;52.55;100698.09;5044062;28;1604;-59
2022/04/06 09:01:15;;;;;;;;;;;;;;;18.48;52.80;100706.13;5041405;28;1711;-58
2022/04/06 09:03:43;;;;;;;;;;;;;;;18.49;51.91;100700.66;5045909;28;1612;-58
2022/04/06 09:06:10;;;;;;;;;;;;;;;18.44;52.28;100691.31;5047004;28;2021;-58
2022/04/06 09:08:39;;;;;;;;;;;;;;;18.48;50.97;100698.09;5045245;28;1723;-58
2022/04/06 09:11:10;;;;;;;;;;;;;;;18.44;52.06;100676.13;5047474;28;1604;-69
2022/04/06 09:13:36;;;;;;;;;;;;;;;18.44;51.91;100676.13;5047790;28;1616;-68
2022/04/06 09:16:04;;;;;;;;;;;;;;;18.46;50.49;100687.53;5052269;28;1586;-61
2022/04/06 09:18:34;;;;;;;;;;;;;;;18.51;50.73;100676.41;5054251;28;1431;-67
2022/04/06 09:21:03;;;;;;;;;;;;;;;18.34;50.17;100687.75;5056338;28;1479;-58
2022/04/06 09:23:30;;;;;;;;;;;;;;;18.35;49.67;100686.78;5051711;28;1573;-62
2022/04/06 09:26:01;;;;;;;;;;;;;;;18.33;50.04;100673.53;5052804;28;1910;-70
2022/04/06 09:28:28;;;;;;;;;;;;;;;18.28;50.35;100665.91;5045330;28;1634;-61
2022/04/06 09:30:54;;;;;;;;;;;;;;;18.38;49.41;100654.38;5055435;28;1653;-65
2022/04/06 09:33:21;;;;;;;;;;;;;;;18.35;49.22;100668.03;5047368;28;1467;-67
2022/04/06 09:35:48;;;;;;;;;;;;;;;18.21;50.78;100655.84;5048771;28;1015;-59
2022/04/06 09:38:19;;;;;;;;;;;;;;;18.14;51.35;100655.50;5042162;28;1528;-65
2022/04/06 09:40:46;;;;;;;;;;;;;;;18.16;50.78;100653.56;5044723;28;1750;-60
2022/04/06 09:43:24;;;;;;;;;;;;;;;18.25;50.84;100660.78;5052001;28;1459;-58
2022/04/06 09:48:51;;;;;;;;;;;;;;;18.29;51.63;100654.19;5052912;28;1525;-59
2022/04/06 09:51:18;;;;;;;;;;;;;;;18.27;51.10;100649.97;5055591;28;1525;-59
2022/04/06 09:53:48;;;;;;;;;;;;;;;18.35;51.68;100655.50;5055388;28;1747;-55
2022/04/06 09:56:15;;;;;;;;;;;;;;;18.35;52.35;100652.81;5053610;28;1711;-56
2022/04/06 09:58:42;;;;;;;;;;;;;;;18.33;52.64;100661.97;5050781;28;1649;-57
2022/04/06 10:01:09;;;;;;;;;;;;;;;18.33;53.09;100627.16;5046334;28;1664;-57
2022/04/06 10:03:38;;;;;;;;;;;;;;;18.40;54.09;100642.56;5046212;28;1597;-56
2022/04/06 10:06:05;;;;;;;;;;;;;;;18.40;54.18;100652.41;5054861;28;1902;-68
2022/04/06 10:08:32;;;;;;;;;;;;;;;18.34;54.46;100642.22;5049625;28;1570;-63
2022/04/06 10:11:00;;;;;;;;;;;;;;;18.29;55.19;100630.09;5049828;28;1645;-59
2022/04/06 10:13:27;;;;;;;;;;;;;;;18.35;54.66;100633.25;5051545;28;1691;-60
2022/04/06 10:15:55;;;;;;;;;;;;;;;18.34;54.77;100626.16;5052141;28;1409;-63
2022/04/06 10:18:21;;;;;;;;;;;;;;;18.31;55.30;100635.31;5049792;28;1467;-62
2022/04/06 10:20:51;;;;;;;;;;;;;;;18.29;55.23;100632.78;5051810;28;1628;-61
2022/04/06 10:23:22;;;;;;;;;;;;;;;18.26;55.76;100633.06;5047891;28;1476;-61
2022/04/06 10:25:52;;;;;;;;;;;;;;;18.30;55.76;100636.28;5045199;28;1998;-60
2022/04/06 10:28:21;;;;;;;;;;;;;;;18.29;56.50;100626.59;5051831;28;1433;-62
2022/04/06 10:31:06;;;;;;;;;;;;;;;18.25;56.31;100617.97;5051344;28;1437;-59
2022/04/06 10:33:34;;;;;;;;;;;;;;;18.26;56.00;100614.31;5046499;28;1588;-61
2022/04/06 10:36:16;;;;;;;;;;;;;;;18.30;56.20;100625.59;5050097;28;1307;-67
2022/04/06 10:38:42;;;;;;;;;;;;;;;18.37;57.05;100615.22;5051288;28;1390;-60
2022/04/06 10:41:08;;;;;;;;;;;;;;;18.34;56.52;100610.09;5045725;28;1541;-60
2022/04/06 10:43:52;;;;;;;;;;;;;;;18.34;56.85;100610.09;5044448;28;1431;-60
2022/04/06 10:46:33;;;;;;;;;;;;;;;18.29;57.29;100608.69;5048769;28;1902;-62
2022/04/06 10:49:10;;;;;;;;;;;;;;;18.26;56.91;100608.97;5050207;28;1966;-60
2022/04/06 10:51:37;;;;;;;;;;;;;;;18.29;57.34;100608.69;5052096;28;1577;-64
2022/04/06 10:54:19;;;;;;;;;;;;;;;18.28;57.22;100607.00;5042688;28;1691;-61
2022/04/06 10:56:52;;;;;;;;;;;;;;;18.24;57.79;100597.56;5038924;28;1978;-64
2022/04/06 10:59:20;;;;;;;;;;;;;;;18.27;57.12;100599.09;5045659;28;1588;-62
2022/04/06 11:01:48;;;;;;;;;;;;;;;18.25;58.00;100596.56;5038020;28;1507;-61
2022/04/06 11:04:18;;;;;;;;;;;;;;;18.28;57.63;100601.66;5049128;28;1629;-64
2022/04/06 11:06:52;;;;;;;;;;;;;;;18.28;57.92;100604.34;5044505;28;1973;-61
2022/04/06 11:12:10;;;;;;;;;;;;;;;18.28;57.73;100598.09;5039670;28;1313;-62
2022/04/06 11:14:38;;;;;;;;;;;;;;;18.28;58.08;100595.44;5041912;28;1628;-65
2022/04/06 11:17:19;;;;;;;;;;;;;;;18.23;57.73;100593.16;5047933;28;1633;-62
2022/04/06 11:19:49;;;;;;;;;;;;;;;18.29;57.84;100589.09;5045918;28;1532;-61
2022/04/06 11:22:16;;;;;;;;;;;;;;;18.26;58.54;100589.38;5050878;28;1439;-64
2022/04/06 11:24:44;;;;;;;;;;;;;;;18.24;58.63;100577.94;5041204;28;1060;-62
2022/04/06 11:27:10;;;;;;;;;;;;;;;18.23;58.56;100571.75;5045108;28;1971;-64
2022/04/06 11:29:38;;;;;;;;;;;;;;;18.24;58.70;100584.16;5048483;28;1460;-65
2022/04/06 11:32:05;;;;;;;;;;;;;;;18.21;58.30;100568.38;5049785;28;1542;-62
2022/04/06 11:34:35;;;;;;;;;;;;;;;18.24;58.67;100562.75;5047440;28;1661;-63
2022/04/06 11:37:02;;;;;;;;;;;;;;;18.22;58.85;100559.38;5049923;28;1573;-62
2022/04/06 11:39:29;;;;;;;;;;;;;;;18.24;58.73;100562.75;5048680;28;1830;-62
2022/04/06 11:41:55;;;;;;;;;;;;;;;18.24;58.74;100549.38;5047657;28;1567;-63
2022/04/06 11:44:24;;;;;;;;;;;;;;;18.26;59.02;100550.09;5044703;28;1600;-61
2022/04/06 11:46:52;;;;;;;;;;;;;;;18.25;59.05;100550.22;5047452;28;1973;-63
2022/04/06 11:49:24;;;;;;;;;;;;;;;18.26;58.84;100549.22;5045073;28;1595;-63
2022/04/06 11:51:51;;;;;;;;;;;;;;;18.23;59.07;100536.97;5048950;28;1482;-63
2022/04/06 11:54:17;;;;;;;;;;;;;;;18.27;58.60;100540.22;5052999;28;1463;-64
2022/04/06 11:56:44;;;;;;;;;;;;;;;18.25;59.18;100526.97;5051432;28;1613;-62
2022/04/06 11:59:11;;;;;;;;;;;;;;;18.25;59.11;100526.97;5052416;28;1513;-62
2022/04/06 12:01:45;;;;;;;;;;;;;;;18.23;59.07;100539.63;5049852;28;1507;-61
2022/04/06 12:04:18;;;;;;;;;;;;;;;18.24;59.20;100533.31;5044598;28;1444;-61
2022/04/06 12:06:45;;;;;;;;;;;;;;;18.24;58.80;100527.97;5052145;28;1988;-64
2022/04/06 12:09:12;;;;;;;;;;;;;;;18.20;59.20;100523.84;5048795;28;1778;-63
2022/04/06 12:11:39;;;;;;;;;;;;;;;18.26;58.96;100526.00;5040422;28;1408;-66
2022/04/06 12:14:06;;;;;;;;;;;;;;;18.40;57.99;100529.25;5050631;28;1592;-65
2022/04/06 12:16:34;;;;;;;;;;;;;;;18.37;58.60;100524.19;5046751;28;1960;-66
2022/04/06 12:19:01;;;;;;;;;;;;;;;18.40;57.90;100529.25;5044780;28;1318;-66
2022/04/06 12:21:29;;;;;;;;;;;;;;;18.34;57.97;100529.81;5047559;28;1447;-67
2022/04/06 12:23:56;;;;;;;;;;;;;;;18.35;58.46;100510.09;5046921;28;1697;-69
2022/04/06 12:26:23;;;;;;;;;;;;;;;18.38;58.79;100516.03;5053655;28;1902;-59
2022/04/06 12:28:50;;;;;;;;;;;;;;;18.44;58.29;100512.78;5048570;28;1649;-63
2022/04/06 12:31:17;;;;;;;;;;;;;;;18.44;59.02;100511.94;5050999;28;1455;-60
2022/04/06 12:33:45;;;;;;;;;;;;;;;18.50;58.52;100503.34;5050277;28;1573;-69
2022/04/06 12:36:16;;;;;;;;;;;;;;;18.43;59.03;100499.53;5051470;28;1657;-72
2022/04/06 12:38:56;;;;;;;;;;;;;;;18.42;58.90;100473.72;5051844;28;1625;-60
2022/04/06 12:41:25;;;;;;;;;;;;;;;18.39;59.43;100484.75;5052193;28;1565;-60
2022/04/06 12:43:52;;;;;;;;;;;;;;;18.39;59.19;100490.94;5051482;28;1460;-60
2022/04/06 12:46:38;;;;;;;;;;;;;;;18.49;58.75;100481.06;5053326;28;1898;-67
2022/04/06 12:49:20;;;;;;;;;;;;;;;18.50;59.77;100476.56;5051242;28;1626;-68
2022/04/06 12:51:47;;;;;;;;;;;;;;;18.42;59.49;100471.94;5052073;28;959;-65
2022/04/06 12:54:16;;;;;;;;;;;;;;;18.47;59.69;100460.78;5056586;28;1527;-63
2022/04/06 12:56:58;;;;;;;;;;;;;;;18.45;59.39;100460.09;5051937;28;1276;-66
2022/04/06 12:59:35;;;;;;;;;;;;;;;18.41;59.67;100446.13;5047013;28;1650;-66